Terminal Aerodrome Forecast
Issued by NWS

Home | Current Version | Previous Version | Text Only | Print | Product List | Glossary On
Versions: 1 2 3 4 5 6 7 8 9 10 11 12 13 14 15 16 17 18 19 20 21 22 23 24 25 26
000
FTUS43 KDLH 151100
TAFBRD
TAF
KBRD 151128Z 1512/1612 33008KT P6SM SCT040
     FM160000 15006KT P6SM SCT050 BKN120
     FM160400 12007KT P6SM VCSH BKN040
     FM160600 09014KT P6SM VCSH OVC030
      TEMPO 1606/1609 3SM -SN OVC015
     FM160900 09014KT 3SM -SN OVC015=

USA.gov is the U.S. government's official web portal to all federal, state and local government web resources and services.